sensor_id;sensor_type;location;lat;lon;timestamp;pressure;altitude;pressure_sealevel;temperature;humidity
23433;BME280;41331;45.412;10.992;2022-12-18T00:01:30;102059.53;;;4.34;100.00
23433;BME280;41331;45.412;10.992;2022-12-18T00:04:00;102053.81;;;4.31;100.00
23433;BME280;41331;45.412;10.992;2022-12-18T00:06:32;102055.22;;;4.33;100.00
23433;BME280;41331;45.412;10.992;2022-12-18T00:09:01;102057.41;;;4.36;100.00
23433;BME280;41331;45.412;10.992;2022-12-18T00:11:30;102051.03;;;4.43;100.00
23433;BME280;41331;45.412;10.992;2022-12-18T00:13:59;102062.31;;;4.39;100.00
23433;BME280;41331;45.412;10.992;2022-12-18T00:16:28;102059.94;;;4.43;100.00
23433;BME280;41331;45.412;10.992;2022-12-18T00:18:57;102058.53;;;4.40;100.00
23433;BME280;41331;45.412;10.992;2022-12-18T00:21:24;102067.97;;;4.38;100.00
23433;BME280;41331;45.412;10.992;2022-12-18T00:23:52;102063.31;;;4.33;100.00
23433;BME280;41331;45.412;10.992;2022-12-18T00:26:22;102062.63;;;4.26;100.00
23433;BME280;41331;45.412;10.992;2022-12-18T00:28:54;102057.09;;;4.33;100.00
23433;BME280;41331;45.412;10.992;2022-12-18T00:31:24;102066.00;;;4.33;100.00
23433;BME280;41331;45.412;10.992;2022-12-18T00:33:57;102076.03;;;4.38;100.00
23433;BME280;41331;45.412;10.992;2022-12-18T00:36:25;102068.75;;;4.55;100.00
23433;BME280;41331;45.412;10.992;2022-12-18T00:38:54;102081.59;;;4.48;100.00
23433;BME280;41331;45.412;10.992;2022-12-18T00:41:40;102078.81;;;4.43;100.00
23433;BME280;41331;45.412;10.992;2022-12-18T00:44:26;102075.47;;;4.36;100.00
23433;BME280;41331;45.412;10.992;2022-12-18T00:46:54;102083.63;;;4.41;100.00
23433;BME280;41331;45.412;10.992;2022-12-18T00:49:21;102085.69;;;4.34;100.00
23433;BME280;41331;45.412;10.992;2022-12-18T00:51:49;102098.00;;;4.30;100.00
23433;BME280;41331;45.412;10.992;2022-12-18T00:54:17;102091.00;;;4.29;100.00
23433;BME280;41331;45.412;10.992;2022-12-18T00:56:44;102100.44;;;4.31;100.00
23433;BME280;41331;45.412;10.992;2022-12-18T00:59:17;102101.94;;;4.39;100.00
23433;BME280;41331;45.412;10.992;2022-12-18T01:01:45;102111.72;;;4.45;100.00
23433;BME280;41331;45.412;10.992;2022-12-18T01:04:13;102102.00;;;4.44;100.00
23433;BME280;41331;45.412;10.992;2022-12-18T01:06:44;102109.09;;;4.50;100.00
23433;BME280;41331;45.412;10.992;2022-12-18T01:09:12;102109.53;;;4.59;100.00
23433;BME280;41331;45.412;10.992;2022-12-18T01:11:39;102113.84;;;4.60;100.00
23433;BME280;41331;45.412;10.992;2022-12-18T01:14:07;102121.19;;;4.64;100.00
23433;BME280;41331;45.412;10.992;2022-12-18T01:16:37;102132.47;;;4.61;100.00
23433;BME280;41331;45.412;10.992;2022-12-18T01:19:04;102122.81;;;4.65;100.00
23433;BME280;41331;45.412;10.992;2022-12-18T01:21:32;102137.13;;;4.66;100.00
23433;BME280;41331;45.412;10.992;2022-12-18T01:24:04;102140.97;;;4.70;100.00
23433;BME280;41331;45.412;10.992;2022-12-18T01:26:31;102139.97;;;4.76;100.00
23433;BME280;41331;45.412;10.992;2022-12-18T01:28:59;102152.41;;;4.77;100.00
23433;BME280;41331;45.412;10.992;2022-12-18T01:31:29;102158.91;;;4.81;100.00
23433;BME280;41331;45.412;10.992;2022-12-18T01:34:00;102157.38;;;4.85;100.00
23433;BME280;41331;45.412;10.992;2022-12-18T01:36:30;102152.41;;;4.77;100.00
23433;BME280;41331;45.412;10.992;2022-12-18T01:39:03;102158.91;;;4.81;100.00
23433;BME280;41331;45.412;10.992;2022-12-18T01:41:32;102159.25;;;4.85;100.00
23433;BME280;41331;45.412;10.992;2022-12-18T01:47:28;102161.78;;;4.91;100.00
23433;BME280;41331;45.412;10.992;2022-12-18T01:50:00;102156.97;;;4.93;100.00
23433;BME280;41331;45.412;10.992;2022-12-18T01:52:29;102159.97;;;4.97;100.00
23433;BME280;41331;45.412;10.992;2022-12-18T01:54:59;102160.88;;;5.03;100.00
23433;BME280;41331;45.412;10.992;2022-12-18T01:57:28;102171.34;;;4.99;100.00
23433;BME280;41331;45.412;10.992;2022-12-18T02:00:04;102178.69;;;5.04;100.00
23433;BME280;41331;45.412;10.992;2022-12-18T02:02:41;102167.88;;;5.04;100.00
23433;BME280;41331;45.412;10.992;2022-12-18T02:05:10;102169.84;;;5.08;100.00
23433;BME280;41331;45.412;10.992;2022-12-18T02:10:24;102182.53;;;5.08;100.00
23433;BME280;41331;45.412;10.992;2022-12-18T02:20:36;102185.59;;;5.16;100.00
23433;BME280;41331;45.412;10.992;2022-12-18T02:31:26;102187.25;;;5.17;100.00
23433;BME280;41331;45.412;10.992;2022-12-18T02:33:59;102194.50;;;5.17;100.00
23433;BME280;41331;45.412;10.992;2022-12-18T02:36:28;102193.13;;;5.14;100.00
23433;BME280;41331;45.412;10.992;2022-12-18T02:39:01;102207.94;;;5.12;100.00
23433;BME280;41331;45.412;10.992;2022-12-18T02:41:29;102208.00;;;5.17;100.00
23433;BME280;41331;45.412;10.992;2022-12-18T02:44:01;102206.38;;;5.16;100.00
23433;BME280;41331;45.412;10.992;2022-12-18T02:46:38;102223.47;;;5.22;100.00
23433;BME280;41331;45.412;10.992;2022-12-18T02:49:26;102224.59;;;5.26;100.00
23433;BME280;41331;45.412;10.992;2022-12-18T02:55:03;102226.75;;;5.24;100.00
23433;BME280;41331;45.412;10.992;2022-12-18T03:03:14;102231.81;;;5.20;100.00
23433;BME280;41331;45.412;10.992;2022-12-18T03:05:51;102231.06;;;5.25;100.00
23433;BME280;41331;45.412;10.992;2022-12-18T03:08:42;102233.13;;;5.17;100.00
23433;BME280;41331;45.412;10.992;2022-12-18T03:11:12;102236.97;;;5.22;100.00
23433;BME280;41331;45.412;10.992;2022-12-18T03:13:54;102228.38;;;5.25;100.00
23433;BME280;41331;45.412;10.992;2022-12-18T03:16:27;102230.19;;;5.19;100.00
23433;BME280;41331;45.412;10.992;2022-12-18T03:18:59;102223.22;;;5.23;100.00
23433;BME280;41331;45.412;10.992;2022-12-18T03:21:35;102225.34;;;5.21;100.00
23433;BME280;41331;45.412;10.992;2022-12-18T03:24:07;102226.41;;;5.20;100.00
23433;BME280;41331;45.412;10.992;2022-12-18T03:26:40;102236.22;;;5.26;100.00
23433;BME280;41331;45.412;10.992;2022-12-18T03:29:20;102234.25;;;5.22;100.00
23433;BME280;41331;45.412;10.992;2022-12-18T03:31:54;102232.56;;;5.15;100.00
23433;BME280;41331;45.412;10.992;2022-12-18T03:34:26;102233.38;;;5.16;100.00
23433;BME280;41331;45.412;10.992;2022-12-18T03:36:58;102237.47;;;5.18;100.00
23433;BME280;41331;45.412;10.992;2022-12-18T03:39:31;102236.41;;;5.19;100.00
23433;BME280;41331;45.412;10.992;2022-12-18T03:50:46;102253.25;;;5.10;100.00
23433;BME280;41331;45.412;10.992;2022-12-18T03:56:16;102246.97;;;5.04;100.00
23433;BME280;41331;45.412;10.992;2022-12-18T03:58:45;102254.81;;;5.06;100.00
23433;BME280;41331;45.412;10.992;2022-12-18T04:01:23;102256.13;;;5.03;100.00
23433;BME280;41331;45.412;10.992;2022-12-18T04:03:52;102264.72;;;5.00;100.00
23433;BME280;41331;45.412;10.992;2022-12-18T04:06:22;102261.75;;;5.02;100.00
23433;BME280;41331;45.412;10.992;2022-12-18T04:08:51;102274.69;;;5.00;100.00
23433;BME280;41331;45.412;10.992;2022-12-18T04:11:22;102278.78;;;5.02;100.00
23433;BME280;41331;45.412;10.992;2022-12-18T04:13:49;102275.50;;;5.00;100.00
23433;BME280;41331;45.412;10.992;2022-12-18T04:16:25;102278.53;;;5.04;100.00
23433;BME280;41331;45.412;10.992;2022-12-18T04:18:56;102270.09;;;5.00;100.00
23433;BME280;41331;45.412;10.992;2022-12-18T04:21:25;102284.19;;;5.02;100.00
23433;BME280;41331;45.412;10.992;2022-12-18T04:23:53;102282.72;;;4.94;100.00
23433;BME280;41331;45.412;10.992;2022-12-18T04:26:22;102284.41;;;5.01;100.00
23433;BME280;41331;45.412;10.992;2022-12-18T04:28:59;102287.13;;;5.01;100.00
23433;BME280;41331;45.412;10.992;2022-12-18T04:31:28;102285.97;;;4.97;100.00
23433;BME280;41331;45.412;10.992;2022-12-18T04:33:56;102288.34;;;4.93;100.00
23433;BME280;41331;45.412;10.992;2022-12-18T04:36:24;102299.06;;;4.88;100.00
23433;BME280;41331;45.412;10.992;2022-12-18T04:38:52;102302.59;;;4.88;100.00
23433;BME280;41331;45.412;10.992;2022-12-18T04:41:20;102299.47;;;4.80;100.00
23433;BME280;41331;45.412;10.992;2022-12-18T04:43:49;102303.78;;;4.81;100.00
23433;BME280;41331;45.412;10.992;2022-12-18T04:46:16;102306.50;;;4.81;100.00
23433;BME280;41331;45.412;10.992;2022-12-18T04:48:47;102305.66;;;4.80;100.00
23433;BME280;41331;45.412;10.992;2022-12-18T04:51:14;102308.13;;;4.82;100.00
23433;BME280;41331;45.412;10.992;2022-12-18T04:53:42;102318.81;;;4.77;100.00
23433;BME280;41331;45.412;10.992;2022-12-18T04:56:11;102322.19;;;4.84;100.00
23433;BME280;41331;45.412;10.992;2022-12-18T04:58:41;102322.13;;;4.96;100.00
23433;BME280;41331;45.412;10.992;2022-12-18T05:01:09;102323.66;;;4.91;100.00
23433;BME280;41331;45.412;10.992;2022-12-18T05:03:39;102327.75;;;4.94;100.00
23433;BME280;41331;45.412;10.992;2022-12-18T05:06:07;102322.63;;;4.92;100.00
23433;BME280;41331;45.412;10.992;2022-12-18T05:08:35;102328.91;;;4.98;100.00
23433;BME280;41331;45.412;10.992;2022-12-18T05:11:05;102325.88;;;4.94;100.00
23433;BME280;41331;45.412;10.992;2022-12-18T05:13:33;102338.00;;;4.92;100.00
23433;BME280;41331;45.412;10.992;2022-12-18T05:16:04;102333.88;;;4.89;100.00
23433;BME280;41331;45.412;10.992;2022-12-18T05:18:32;102334.88;;;4.83;100.00
23433;BME280;41331;45.412;10.992;2022-12-18T05:21:00;102341.66;;;4.86;100.00
23433;BME280;41331;45.412;10.992;2022-12-18T05:23:28;102351.50;;;4.92;100.00
23433;BME280;41331;45.412;10.992;2022-12-18T05:26:01;102352.88;;;4.94;100.00
23433;BME280;41331;45.412;10.992;2022-12-18T05:28:30;102347.38;;;4.89;100.00
23433;BME280;41331;45.412;10.992;2022-12-18T05:30:59;102344.84;;;4.83;100.00
23433;BME280;41331;45.412;10.992;2022-12-18T05:33:31;102349.44;;;4.82;100.00
23433;BME280;41331;45.412;10.992;2022-12-18T05:36:01;102357.53;;;4.82;100.00
23433;BME280;41331;45.412;10.992;2022-12-18T05:38:30;102363.47;;;4.84;100.00
23433;BME280;41331;45.412;10.992;2022-12-18T05:40:58;102370.50;;;4.85;100.00
23433;BME280;41331;45.412;10.992;2022-12-18T05:43:26;102377.78;;;4.85;100.00
23433;BME280;41331;45.412;10.992;2022-12-18T05:45:54;102375.53;;;4.93;100.00
23433;BME280;41331;45.412;10.992;2022-12-18T05:48:23;102380.66;;;4.78;100.00
23433;BME280;41331;45.412;10.992;2022-12-18T05:50:51;102389.13;;;4.70;100.00
23433;BME280;41331;45.412;10.992;2022-12-18T05:53:20;102388.31;;;4.70;100.00
23433;BME280;41331;45.412;10.992;2022-12-18T05:55:48;102384.69;;;4.64;100.00
23433;BME280;41331;45.412;10.992;2022-12-18T05:58:15;102387.94;;;4.66;100.00
23433;BME280;41331;45.412;10.992;2022-12-18T06:00:45;102394.25;;;4.72;100.00
23433;BME280;41331;45.412;10.992;2022-12-18T06:03:13;102390.19;;;4.69;100.00
23433;BME280;41331;45.412;10.992;2022-12-18T06:05:43;102405.41;;;4.75;100.00
23433;BME280;41331;45.412;10.992;2022-12-18T06:08:12;102408.19;;;4.80;100.00
23433;BME280;41331;45.412;10.992;2022-12-18T06:10:41;102423.66;;;4.85;100.00
23433;BME280;41331;45.412;10.992;2022-12-18T06:13:08;102406.00;;;4.77;100.00
23433;BME280;41331;45.412;10.992;2022-12-18T06:15:36;102423.41;;;4.86;100.00
23433;BME280;41331;45.412;10.992;2022-12-18T06:18:04;102424.47;;;4.85;100.00
23433;BME280;41331;45.412;10.992;2022-12-18T06:20:32;102415.47;;;4.80;100.00
23433;BME280;41331;45.412;10.992;2022-12-18T06:23:00;102433.63;;;4.84;100.00
23433;BME280;41331;45.412;10.992;2022-12-18T06:25:27;102434.34;;;4.80;100.00
23433;BME280;41331;45.412;10.992;2022-12-18T06:27:57;102441.63;;;4.79;100.00
23433;BME280;41331;45.412;10.992;2022-12-18T06:30:24;102444.31;;;4.79;100.00
23433;BME280;41331;45.412;10.992;2022-12-18T06:32:52;102447.38;;;4.83;100.00
23433;BME280;41331;45.412;10.992;2022-12-18T06:35:23;102437.88;;;4.80;100.00
23433;BME280;41331;45.412;10.992;2022-12-18T06:37:50;102447.06;;;4.67;100.00
23433;BME280;41331;45.412;10.992;2022-12-18T06:40:18;102444.22;;;4.74;100.00
23433;BME280;41331;45.412;10.992;2022-12-18T06:42:46;102465.09;;;4.79;100.00
23433;BME280;41331;45.412;10.992;2022-12-18T06:45:15;102462.66;;;4.77;100.00
23433;BME280;41331;45.412;10.992;2022-12-18T06:47:43;102455.97;;;4.68;100.00
23433;BME280;41331;45.412;10.992;2022-12-18T06:50:12;102469.66;;;4.78;100.00
23433;BME280;41331;45.412;10.992;2022-12-18T06:52:39;102468.59;;;4.79;100.00
23433;BME280;41331;45.412;10.992;2022-12-18T06:55:07;102459.00;;;4.72;100.00
23433;BME280;41331;45.412;10.992;2022-12-18T06:57:35;102456.09;;;4.73;100.00
23433;BME280;41331;45.412;10.992;2022-12-18T07:00:05;102479.50;;;4.84;100.00
23433;BME280;41331;45.412;10.992;2022-12-18T07:02:32;102467.34;;;4.70;100.00
23433;BME280;41331;45.412;10.992;2022-12-18T07:05:03;102468.50;;;4.74;100.00
23433;BME280;41331;45.412;10.992;2022-12-18T07:07:41;102485.59;;;4.80;100.00
23433;BME280;41331;45.412;10.992;2022-12-18T07:10:08;102489.94;;;4.81;100.00
23433;BME280;41331;45.412;10.992;2022-12-18T07:12:36;102489.72;;;4.82;100.00
23433;BME280;41331;45.412;10.992;2022-12-18T07:15:04;102491.09;;;4.85;100.00
23433;BME280;41331;45.412;10.992;2022-12-18T07:17:31;102499.91;;;4.92;100.00
23433;BME280;41331;45.412;10.992;2022-12-18T07:19:59;102496.25;;;4.86;100.00
23433;BME280;41331;45.412;10.992;2022-12-18T07:22:26;102509.88;;;4.80;100.00
23433;BME280;41331;45.412;10.992;2022-12-18T07:24:54;102514.31;;;4.86;100.00
23433;BME280;41331;45.412;10.992;2022-12-18T07:27:24;102517.84;;;4.86;100.00
23433;BME280;41331;45.412;10.992;2022-12-18T07:29:52;102504.75;;;4.78;100.00
23433;BME280;41331;45.412;10.992;2022-12-18T07:32:19;102505.06;;;4.82;100.00
23433;BME280;41331;45.412;10.992;2022-12-18T07:34:47;102519.63;;;4.81;100.00
23433;BME280;41331;45.412;10.992;2022-12-18T07:37:14;102528.63;;;4.86;100.00
23433;BME280;41331;45.412;10.992;2022-12-18T07:39:42;102520.31;;;4.88;100.00
23433;BME280;41331;45.412;10.992;2022-12-18T07:42:09;102523.94;;;4.93;100.00
23433;BME280;41331;45.412;10.992;2022-12-18T07:44:55;102531.03;;;5.11;100.00
23433;BME280;41331;45.412;10.992;2022-12-18T07:47:24;102551.16;;;5.32;100.00
23433;BME280;41331;45.412;10.992;2022-12-18T07:49:53;102548.34;;;5.27;100.00
23433;BME280;41331;45.412;10.992;2022-12-18T07:52:21;102550.13;;;5.22;100.00
23433;BME280;41331;45.412;10.992;2022-12-18T07:54:52;102561.25;;;5.25;100.00
23433;BME280;41331;45.412;10.992;2022-12-18T07:57:20;102567.09;;;5.34;100.00
23433;BME280;41331;45.412;10.992;2022-12-18T08:00:08;102579.19;;;5.31;100.00
23433;BME280;41331;45.412;10.992;2022-12-18T08:02:38;102577.81;;;5.29;100.00
23433;BME280;41331;45.412;10.992;2022-12-18T08:05:06;102580.41;;;5.24;100.00
23433;BME280;41331;45.412;10.992;2022-12-18T08:07:33;102588.97;;;5.32;100.00
23433;BME280;41331;45.412;10.992;2022-12-18T08:10:01;102583.94;;;5.24;100.00
23433;BME280;41331;45.412;10.992;2022-12-18T08:12:28;102603.59;;;5.36;100.00
23433;BME280;41331;45.412;10.992;2022-12-18T08:14:58;102592.38;;;5.28;100.00
23433;BME280;41331;45.412;10.992;2022-12-18T08:17:26;102592.75;;;5.48;100.00
23433;BME280;41331;45.412;10.992;2022-12-18T08:19:53;102590.78;;;5.43;100.00
23433;BME280;41331;45.412;10.992;2022-12-18T08:22:21;102609.88;;;5.54;100.00
23433;BME280;41331;45.412;10.992;2022-12-18T08:24:48;102623.13;;;5.55;100.00
23433;BME280;41331;45.412;10.992;2022-12-18T08:27:16;102613.88;;;5.51;100.00
23433;BME280;41331;45.412;10.992;2022-12-18T08:29:59;102619.47;;;5.61;100.00
23433;BME280;41331;45.412;10.992;2022-12-18T08:32:29;102613.06;;;5.51;100.00
23433;BME280;41331;45.412;10.992;2022-12-18T08:34:57;102631.09;;;5.62;100.00
23433;BME280;41331;45.412;10.992;2022-12-18T08:37:24;102630.66;;;5.53;100.00
23433;BME280;41331;45.412;10.992;2022-12-18T08:39:52;102629.53;;;5.66;100.00
23433;BME280;41331;45.412;10.992;2022-12-18T08:42:19;102642.59;;;5.69;100.00
23433;BME280;41331;45.412;10.992;2022-12-18T08:45:05;102643.41;;;5.69;100.00
23433;BME280;41331;45.412;10.992;2022-12-18T08:47:33;102644.97;;;5.82;100.00
23433;BME280;41331;45.412;10.992;2022-12-18T08:50:00;102643.59;;;5.80;100.00
23433;BME280;41331;45.412;10.992;2022-12-18T08:52:28;102647.69;;;5.82;100.00
23433;BME280;41331;45.412;10.992;2022-12-18T08:54:55;102651.69;;;5.80;100.00
23433;BME280;41331;45.412;10.992;2022-12-18T08:57:23;102659.19;;;5.89;100.00
23433;BME280;41331;45.412;10.992;2022-12-18T08:59:50;102649.41;;;6.00;100.00
23433;BME280;41331;45.412;10.992;2022-12-18T09:02:17;102652.28;;;6.10;100.00
23433;BME280;41331;45.412;10.992;2022-12-18T09:04:46;102656.88;;;6.10;100.00
23433;BME280;41331;45.412;10.992;2022-12-18T09:07:21;102655.72;;;6.06;100.00
23433;BME280;41331;45.412;10.992;2022-12-18T09:09:49;102668.88;;;6.02;100.00
23433;BME280;41331;45.412;10.992;2022-12-18T09:12:16;102659.81;;;6.08;100.00
23433;BME280;41331;45.412;10.992;2022-12-18T09:14:44;102670.72;;;6.30;100.00
23433;BME280;41331;45.412;10.992;2022-12-18T09:17:11;102678.44;;;6.38;100.00
23433;BME280;41331;45.412;10.992;2022-12-18T09:19:38;102671.06;;;6.34;100.00
23433;BME280;41331;45.412;10.992;2022-12-18T09:22:06;102663.13;;;6.44;100.00
23433;BME280;41331;45.412;10.992;2022-12-18T09:24:33;102660.16;;;6.45;100.00
23433;BME280;41331;45.412;10.992;2022-12-18T09:27:03;102670.75;;;6.64;100.00
23433;BME280;41331;45.412;10.992;2022-12-18T09:29:30;102679.66;;;6.64;100.00
23433;BME280;41331;45.412;10.992;2022-12-18T09:31:58;102668.59;;;6.66;100.00
23433;BME280;41331;45.412;10.992;2022-12-18T09:34:25;102662.41;;;6.87;100.00
23433;BME280;41331;45.412;10.992;2022-12-18T09:36:53;102670.97;;;7.18;100.00
23433;BME280;41331;45.412;10.992;2022-12-18T09:39:20;102667.56;;;7.27;100.00
23433;BME280;41331;45.412;10.992;2022-12-18T09:41:52;102659.34;;;7.66;98.68
23433;BME280;41331;45.412;10.992;2022-12-18T09:44:36;102658.91;;;7.74;99.28
23433;BME280;41331;45.412;10.992;2022-12-18T09:47:18;102658.44;;;7.83;98.42
23433;BME280;41331;45.412;10.992;2022-12-18T09:49:53;102651.22;;;7.66;97.34
23433;BME280;41331;45.412;10.992;2022-12-18T09:52:43;102663.13;;;7.65;96.91
23433;BME280;41331;45.412;10.992;2022-12-18T09:57:56;102649.78;;;7.59;94.32
23433;BME280;41331;45.412;10.992;2022-12-18T10:00:25;102652.38;;;7.48;95.73
23433;BME280;41331;45.412;10.992;2022-12-18T10:03:00;102645.38;;;7.52;97.82
23433;BME280;41331;45.412;10.992;2022-12-18T10:05:35;102650.78;;;7.52;96.19
23433;BME280;41331;45.412;10.992;2022-12-18T10:13:52;102638.72;;;7.38;99.06
23433;BME280;41331;45.412;10.992;2022-12-18T10:16:40;102636.69;;;7.50;98.32
23433;BME280;41331;45.412;10.992;2022-12-18T10:19:23;102633.41;;;7.48;95.01
23433;BME280;41331;45.412;10.992;2022-12-18T10:24:44;102634.06;;;7.34;98.36
23433;BME280;41331;45.412;10.992;2022-12-18T10:27:18;102634.88;;;7.34;98.33
23433;BME280;41331;45.412;10.992;2022-12-18T10:29:48;102640.22;;;7.29;96.81
23433;BME280;41331;45.412;10.992;2022-12-18T10:32:22;102645.19;;;7.15;97.33
23433;BME280;41331;45.412;10.992;2022-12-18T10:34:52;102649.22;;;7.13;96.91
23433;BME280;41331;45.412;10.992;2022-12-18T10:37:29;102653.81;;;7.12;97.18
23433;BME280;41331;45.412;10.992;2022-12-18T10:40:18;102648.28;;;7.46;96.88
23433;BME280;41331;45.412;10.992;2022-12-18T10:43:12;102653.13;;;7.22;95.86
23433;BME280;41331;45.412;10.992;2022-12-18T10:45:41;102652.38;;;7.26;96.66
23433;BME280;41331;45.412;10.992;2022-12-18T10:48:22;102644.50;;;7.25;94.43
23433;BME280;41331;45.412;10.992;2022-12-18T10:50:50;102649.16;;;7.30;93.73
23433;BME280;41331;45.412;10.992;2022-12-18T10:53:41;102652.63;;;7.25;92.96
23433;BME280;41331;45.412;10.992;2022-12-18T10:56:10;102654.91;;;7.33;92.84
23433;BME280;41331;45.412;10.992;2022-12-18T10:58:38;102655.72;;;7.34;90.79
23433;BME280;41331;45.412;10.992;2022-12-18T11:01:17;102647.84;;;7.10;89.70
23433;BME280;41331;45.412;10.992;2022-12-18T11:06:28;102638.72;;;7.38;90.76
23433;BME280;41331;45.412;10.992;2022-12-18T11:09:19;102637.75;;;7.27;91.05
23433;BME280;41331;45.412;10.992;2022-12-18T11:11:51;102628.56;;;7.50;90.59
23433;BME280;41331;45.412;10.992;2022-12-18T11:14:41;102624.47;;;7.75;90.24
23433;BME280;41331;45.412;10.992;2022-12-18T11:17:25;102620.63;;;7.98;88.68
23433;BME280;41331;45.412;10.992;2022-12-18T11:20:05;102621.28;;;8.10;88.25
23433;BME280;41331;45.412;10.992;2022-12-18T11:22:37;102627.38;;;8.27;87.64
23433;BME280;41331;45.412;10.992;2022-12-18T11:25:18;102624.69;;;8.60;86.22
23433;BME280;41331;45.412;10.992;2022-12-18T11:28:06;102620.25;;;8.96;82.75
23433;BME280;41331;45.412;10.992;2022-12-18T11:33:59;102612.19;;;9.16;81.95
23433;BME280;41331;45.412;10.992;2022-12-18T11:36:48;102612.81;;;9.39;80.90
23433;BME280;41331;45.412;10.992;2022-12-18T11:39:20;102612.47;;;9.10;81.49
23433;BME280;41331;45.412;10.992;2022-12-18T11:41:57;102607.31;;;9.18;83.85
23433;BME280;41331;45.412;10.992;2022-12-18T11:44:49;102603.06;;;9.53;78.99
23433;BME280;41331;45.412;10.992;2022-12-18T11:47:27;102593.59;;;9.76;78.44
23433;BME280;41331;45.412;10.992;2022-12-18T11:50:00;102599.56;;;9.63;80.01
23433;BME280;41331;45.412;10.992;2022-12-18T11:52:38;102602.28;;;9.68;79.25
23433;BME280;41331;45.412;10.992;2022-12-18T11:55:15;102603.38;;;9.67;79.56
23433;BME280;41331;45.412;10.992;2022-12-18T11:57:49;102602.03;;;9.69;78.34
23433;BME280;41331;45.412;10.992;2022-12-18T12:00:19;102603.13;;;9.89;80.18
23433;BME280;41331;45.412;10.992;2022-12-18T12:08:02;102591.72;;;10.32;76.00
23433;BME280;41331;45.412;10.992;2022-12-18T12:21:06;102593.03;;;10.71;75.20
23433;BME280;41331;45.412;10.992;2022-12-18T12:26:21;102586.00;;;10.19;79.15
23433;BME280;41331;45.412;10.992;2022-12-18T12:32:07;102592.50;;;9.77;82.14
23433;BME280;41331;45.412;10.992;2022-12-18T12:37:11;102594.44;;;9.86;79.85
23433;BME280;41331;45.412;10.992;2022-12-18T12:39:44;102589.78;;;9.62;80.02
23433;BME280;41331;45.412;10.992;2022-12-18T12:42:31;102588.69;;;9.68;81.85
23433;BME280;41331;45.412;10.992;2022-12-18T12:50:53;102592.81;;;10.01;78.11
23433;BME280;41331;45.412;10.992;2022-12-18T12:53:26;102583.28;;;9.93;77.06
23433;BME280;41331;45.412;10.992;2022-12-18T12:55:56;102579.44;;;9.69;78.17
23433;BME280;41331;45.412;10.992;2022-12-18T12:58:57;102580.53;;;9.57;78.66
23433;BME280;41331;45.412;10.992;2022-12-18T13:07:15;102574.22;;;9.37;78.67
23433;BME280;41331;45.412;10.992;2022-12-18T13:15:40;102567.97;;;9.31;75.42
23433;BME280;41331;45.412;10.992;2022-12-18T13:31:01;102558.28;;;8.82;77.64
23433;BME280;41331;45.412;10.992;2022-12-18T13:38:45;102564.25;;;8.79;78.54
23433;BME280;41331;45.412;10.992;2022-12-18T13:41:25;102560.94;;;8.72;79.71
23433;BME280;41331;45.412;10.992;2022-12-18T13:43:54;102561.44;;;8.59;78.60
23433;BME280;41331;45.412;10.992;2022-12-18T13:46:48;102566.53;;;8.50;78.62
23433;BME280;41331;45.412;10.992;2022-12-18T13:49:36;102564.91;;;8.49;78.16
23433;BME280;41331;45.412;10.992;2022-12-18T13:54:49;102570.81;;;8.41;78.17
23433;BME280;41331;45.412;10.992;2022-12-18T13:57:33;102566.47;;;8.40;77.70
23433;BME280;41331;45.412;10.992;2022-12-18T14:00:27;102562.66;;;8.41;77.09
23433;BME280;41331;45.412;10.992;2022-12-18T14:02:57;102571.34;;;8.43;78.68
23433;BME280;41331;45.412;10.992;2022-12-18T14:05:28;102570.34;;;8.54;77.50
23433;BME280;41331;45.412;10.992;2022-12-18T14:08:03;102559.69;;;8.43;77.65
23433;BME280;41331;45.412;10.992;2022-12-18T14:10:32;102559.66;;;8.38;77.63
23433;BME280;41331;45.412;10.992;2022-12-18T14:13:29;102564.88;;;8.44;77.02
23433;BME280;41331;45.412;10.992;2022-12-18T14:16:00;102566.75;;;8.39;77.40
23433;BME280;41331;45.412;10.992;2022-12-18T14:18:41;102564.19;;;8.32;78.85
23433;BME280;41331;45.412;10.992;2022-12-18T14:21:30;102558.31;;;8.40;79.34
23433;BME280;41331;45.412;10.992;2022-12-18T14:24:13;102565.59;;;8.35;77.45
23433;BME280;41331;45.412;10.992;2022-12-18T14:26:47;102567.50;;;8.34;77.84
23433;BME280;41331;45.412;10.992;2022-12-18T14:32:17;102557.34;;;8.19;79.43
23433;BME280;41331;45.412;10.992;2022-12-18T14:34:47;102556.72;;;8.12;80.23
23433;BME280;41331;45.412;10.992;2022-12-18T14:37:23;102560.56;;;8.16;80.37
23433;BME280;41331;45.412;10.992;2022-12-18T14:39:54;102567.84;;;8.11;80.69
23433;BME280;41331;45.412;10.992;2022-12-18T14:42:22;102566.38;;;7.98;81.38
23433;BME280;41331;45.412;10.992;2022-12-18T14:44:49;102556.53;;;7.87;81.80
23433;BME280;41331;45.412;10.992;2022-12-18T14:47:37;102558.16;;;7.88;83.26
23433;BME280;41331;45.412;10.992;2022-12-18T14:50:12;102570.25;;;7.75;84.07
23433;BME280;41331;45.412;10.992;2022-12-18T14:52:40;102573.47;;;7.72;85.03
23433;BME280;41331;45.412;10.992;2022-12-18T14:55:16;102573.28;;;7.78;84.24
23433;BME280;41331;45.412;10.992;2022-12-18T14:57:44;102577.34;;;7.81;84.58
23433;BME280;41331;45.412;10.992;2022-12-18T15:00:17;102581.59;;;7.72;85.61
23433;BME280;41331;45.412;10.992;2022-12-18T15:02:49;102588.56;;;7.63;85.89
23433;BME280;41331;45.412;10.992;2022-12-18T15:05:29;102591.47;;;7.56;86.81
23433;BME280;41331;45.412;10.992;2022-12-18T15:07:59;102599.88;;;7.55;86.26
23433;BME280;41331;45.412;10.992;2022-12-18T15:10:30;102594.41;;;7.49;87.13
23433;BME280;41331;45.412;10.992;2022-12-18T15:20:52;102609.09;;;7.32;89.75